Nadunumu Airport

NDN · Northern Province, 巴布亚新几内亚

METAR的历史 NDN · Nadunumu Airport

下面你可以看到过去几天的METARs。 选择年份以浏览从2007年开始的旧METAR。

2022年12月10日

时间 代码 天气 温度 能见度 天花板 METAR/SPECI
06:00
V
25 °C 10 km+ - 350° 350° 3 kt METAR AYPY 092000Z 35003KT 9999 FEW030 SCT050 25/24 Q1007
06:00
V
25 °C 10 km+ - 350° 350° 3 kt METAR AYPY 092000Z 35003KT 9999 FEW030 SCT050 25/24 Q1007=
05:00
V
25 °C 10 km+ - 320° 320° 5 kt METAR AYPY 091900Z 32005KT 9999 SCT050 25/24 Q1006
04:00
V
25 °C 10 km+ 5.000 ft 323° 323° 5 - 10 kt METAR AYPY 091800Z 323005G10KT 9999 BKN050 25/24 Q1006
03:00
V
25 °C 10 km+ 4.000 ft 320° 320° 5 kt METAR AYPY 091700Z 32005KT 9999 BKN040 25/24 Q1007
02:00
V
25 °C 10 km+ 4.000 ft 320° 320° 5 kt METAR AYPY 091600Z 32005KT 9999 BKN040 25/24 Q1007
01:00
V
25 °C 10 km+ - Var Var 3 kt METAR AYPY 091500Z VRB03KT 9999 SCT030 25/25 Q1007
00:00
V
25 °C 10 km+ 3.000 ft 320° 320° 8 kt METAR AYPY 091400Z 32008KT 9999 TS BKN030 25/24 Q1008=

2022年12月9日

时间 代码 天气 温度 能见度 天花板 METAR/SPECI
23:00
M
25 °C 10 km+ 2.000 ft 340° 340° 5 kt METAR AYPY 091300Z 34005KT 9999 TSRA OVC020 25/24 Q1008
22:00
M
26 °C 10 km+ 2.000 ft 320° 320° 10 kt METAR AYPY 091200Z 32010KT 9999 BKN020 OVC030 26/24 Q1008
21:00
M
27 °C 10 km+ 2.000 ft 330° 330° 10 kt METAR AYPY 091100Z 33010KT 9999 BKN020 OVC030 27/25 Q1008
20:00
V
28 °C 10 km+ 4.000 ft 220° 220° 5 kt METAR AYPY 091000Z 22005KT 9999 SCT020 BKN040 28/25 Q1007
19:00
V
28 °C 10 km+ 3.000 ft 170° 170° 10 kt METAR AYPY 090900Z 17010KT 9999 SCT020 BKN030 28/25 Q1006
18:00
V
29 °C 10 km+ 4.000 ft 150° 150° 10 kt METAR AYPY 090800Z 15010KT 9999 HZ SCT025 BKN040 29/25 Q1005 RMK/CB IN AREA
17:00
V
29 °C 10 km+ - 090° 090° 4 kt METAR AYPY 090700Z 09004KT 9999 HZ SCT050 29/23 Q1004 RMK/SHRA TO N AND SW
16:00
V
29 °C 10 km+ - 210° 210° 10 kt METAR AYPY 090600Z 21010KT 9999 HZ SCT035 29/25 Q1004 RMK/ CB FM N TO E
15:00
V
30 °C 10 km+ - 220° 220° 10 kt METAR AYPY 090500Z 22010KT 9999 HZ SCT025 SCT040 30/25 Q1004 RMK
14:00
V
31 °C 10 km+ - 220° 220° 10 - 15 kt METAR AYPY 090400Z 22010G15KT 9999 HZ SCT025 SCT040 31/26 Q1005 RMK/ CB FM THE NW THRU TO THE E
13:00
V
31 °C 10 km+ - 220° 220° 10 kt METAR AYPY 090300Z 22010KT 9999 HZ SCT025 SCT035 31/25 Q1005
11:00
V
31 °C 10 km+ 3.500 ft 320° 320° 5 - 10 kt METAR AYPY 090100Z 32005G10KT 9999 SCT025 BKN035 31/25 Q1007
08:00
V
26 °C 10 km+ - 330° 330° 5 - 10 kt METAR AYPY 082200Z 33005G10KT 9999 SCT050 26/25 Q1008
07:00
V
25 °C 10 km+ - 330° 330° 5 - 10 kt METAR AYPY 082100Z 33005G10KT 9999 FEW030 SCT050 25/24 Q1007
06:00
V
24 °C 10 km+ - 350° 350° 10 kt METAR AYPY 082000Z 35010KT 9999 FEW030 SCT050 24/24 Q1007=
04:00
M
24 °C 10 km+ 2.000 ft 340° 340° 5 kt METAR AYPY 081800Z 34005KT 9999 FG FEW010 BKN020 24/24 Q1005
03:00
V
25 °C 10 km+ 4.000 ft 320° 320° 10 kt METAR AYPY 081700Z 32010KT 9999 FEW010 BKN040 25/24 Q1005
02:00
V
25 °C 10 km+ 5.000 ft 330° 330° 10 kt METAR AYPY 081600Z 33010KT 9999 FEW010 BKN050 25/24 Q1005
01:00
V
25 °C 10 km+ - 340° 340° 5 kt METAR AYPY 081500Z 34005KT 9999 FEW050 25/24 Q1006
00:00
V
25 °C 10 km+ - Var Var 3 kt METAR AYPY 081400Z VRB03KT 9999 FEW040 25/24 Q1006

2022年12月8日

时间 代码 天气 温度 能见度 天花板 METAR/SPECI
23:00
V
25 °C 10 km+ - 310° 310° 5 kt METAR AYPY 081300Z 31005KT 9999 FEW050 25/24 Q1007
22:00
V
25 °C 10 km+ - Var Var 2 kt METAR AYPY 081200Z VRB02KT 9999 FEW070 25/25 Q1007
21:00
V
25 °C 10 km+ - 320° 320° 5 kt METAR AYPY 081100Z 32005KT 9999 FEW035 25/25 Q1007
20:00
V
25 °C 10 km+ - Var Var 4 kt METAR AYPY 081000Z VRB04KT 9999 FEW035 SCT080 25/25 Q1006
18:00
M
25 °C 10 km+ 2.500 ft 180° 180° 5 kt METAR AYPY 080800Z 18005KT 9999 SCT015 BKN025 OVC050 25/24 Q1006 RMK
17:00
V
38 °C 10 km+ 5.000 ft 140° 140° 10 kt METAR AYPY 080700Z 14010KT 9999 SCT025 BKN050 38/26 Q1004 RMK
16:00
V
29 °C 10 km+ 15.000 ft 140° 140° 8 kt METAR AYPY 080600Z 14008KT 9999 SCT025 BKN150 29/26 Q1003
15:00
V
29 °C 10 km+ 3.000 ft 140° 140° 10 kt METAR AYPY 080500Z 14010KT 9999 FEW020 BKN030 BKN200 29/26 Q1004=
14:00
V
30 °C 10 km+ 5.000 ft 200° 200° 5 kt METAR AYPY 080400Z 20005KT 9999 SCT025 BKN050 30/25 Q1004
13:00
V
28 °C 10 km+ 4.000 ft 210° 210° 8 kt METAR AYPY 080300Z 21008KT 9999 SCT020 BKN040 28/26 Q1006 RMK/DISTANT SHRA TO SE
12:00
M
30 °C 10 km+ 2.500 ft 340° 340° 10 kt METAR AYPY 080200Z 34010KT 9999 HZ FEW010 BKN025 30/25 Q1007
11:00
V
30 °C 10 km+ 3.000 ft 350° 350° 10 kt METAR AYPY 080100Z 35010KT 9999 HZ FEW010 BKN030 30/25 Q1007
10:00
V
29 °C 10 km+ - 320° 320° 10 kt METAR AYPY 080000Z 32010KT 9999 HZ SCT025 SCT035 29/25 Q1008
09:00
V
28 °C 10 km+ - 340° 340° 10 kt METAR AYPY 072300Z 34010KT 9999 HZ FEW010 SCT035 28/25 Q1008
08:00
V
27 °C 10 km+ 6.000 ft 330° 330° 3 kt METAR AYPY 072200Z 33003KT 9999 BKN060 27/25 Q1008
07:00
V
26 °C 10 km+ - 300° 300° 3 kt METAR AYPY 072100Z 30003KT 9999 SCT045 26/25 Q1007
06:00
V
25 °C 10 km+ 5.000 ft Var Var 4 kt METAR AYPY 072000Z VRB04KT 9999 SCT035 BKN050 25/25 Q1006
01:00
V
25 °C 10 km+ - 310° 310° 5 kt METAR AYPY 071500Z 31005KT 9999 FEW005 SCT100 25/25 Q1005
00:00
V
26 °C 10 km+ - 320° 320° 6 kt METAR AYPY 071400Z 32006KT 9999 SCT050 26/25 Q1007

2022年12月7日

时间 代码 天气 温度 能见度 天花板 METAR/SPECI
23:00
V
26 °C 10 km+ - 320° 320° 5 kt METAR AYPY 071300Z 32005KT 9999 FEW010 SCT050 26/25 Q1007
22:00
V
26 °C 10 km+ - 310° 310° 8 kt METAR AYPY 071200Z 31008KT 9999 FEW010 26/25 Q1007=
21:00
V
26 °C 10 km+ - 310° 310° 6 kt METAR AYPY 071100Z 31006KT 9999 SCT050 26/25 Q1007
20:00
V
27 °C 10 km+ - Var Var 3 kt METAR AYPY 071000Z VRB03KT 9999 SCT070 27/26 Q1006

我们和第三方通过cookies跟踪您在我们网站上的互联网行为。如果你继续,我们认为你同意我们的饼干政策